Time;durP1;ratioP1;P1;durP2;ratioP2;P2;SDS_P1;SDS_P2;PMS_P1;PMS_P2;Temp;Humidity;BMP_temperature;BMP_pressure;BME280_temperature;BME280_humidity;BME280_pressure;Samples;Min_cycle;Max_cycle;Signal;HPM_P1;HPM_P2
2022/07/20 00:01:52;;;;;;;0.70;0.23;;;28.30;99.90;;;;;;4955070;29;20463;-75
2022/07/20 00:04:21;;;;;;;0.70;0.20;;;28.30;99.90;;;;;;4954972;29;21267;-75
2022/07/20 00:06:49;;;;;;;0.70;0.20;;;28.30;99.90;;;;;;4947935;29;20456;-75
2022/07/20 00:12:02;;;;;;;0.70;0.20;;;28.30;99.90;;;;;;4935083;29;20480;-75
2022/07/20 00:14:30;;;;;;;0.70;0.13;;;28.30;99.90;;;;;;4935342;29;20681;-75
2022/07/20 00:16:58;;;;;;;0.70;0.20;;;28.30;99.90;;;;;;4944009;29;20461;-74
2022/07/20 00:19:27;;;;;;;0.70;0.20;;;28.50;99.90;;;;;;4954350;29;20451;-76
2022/07/20 00:21:55;;;;;;;0.70;0.20;;;28.50;99.90;;;;;;4954063;29;20483;-75
2022/07/20 00:24:23;;;;;;;0.70;0.20;;;28.50;99.90;;;;;;4954355;29;20819;-76
2022/07/20 00:26:51;;;;;;;0.70;0.20;;;28.50;99.90;;;;;;4946071;29;20460;-76
2022/07/20 00:29:19;;;;;;;0.70;0.20;;;28.50;99.90;;;;;;4950657;29;20997;-75
2022/07/20 00:31:47;;;;;;;1.00;0.47;;;28.30;99.90;;;;;;4953884;29;20471;-76
2022/07/20 00:34:14;;;;;;;0.70;0.20;;;28.20;99.90;;;;;;4953790;29;20555;-74
2022/07/20 00:36:44;;;;;;;0.70;0.10;;;28.00;99.90;;;;;;4952590;29;20451;-76
2022/07/20 00:39:12;;;;;;;0.90;0.77;;;27.90;99.90;;;;;;4952881;29;20904;-75
2022/07/20 00:41:39;;;;;;;0.70;0.17;;;27.90;99.90;;;;;;4953263;29;20482;-76
2022/07/20 00:44:09;;;;;;;0.70;0.10;;;28.00;99.90;;;;;;4953214;29;20490;-75
2022/07/20 00:46:38;;;;;;;0.70;0.20;;;28.00;99.90;;;;;;4947661;29;20463;-74
2022/07/20 00:49:08;;;;;;;0.70;0.20;;;28.00;99.90;;;;;;4934264;29;20447;-75
2022/07/20 00:51:36;;;;;;;0.70;0.20;;;28.00;99.90;;;;;;4945886;29;20481;-75
2022/07/20 00:54:07;;;;;;;0.70;0.20;;;28.00;99.90;;;;;;4953393;29;20447;-75
2022/07/20 00:56:35;;;;;;;0.70;0.10;;;28.00;99.90;;;;;;4953456;29;20539;-75
2022/07/20 00:59:04;;;;;;;0.70;0.20;;;28.00;99.90;;;;;;4953196;29;20479;-73
2022/07/20 01:01:33;;;;;;;0.70;0.20;;;28.00;99.90;;;;;;4953798;28;20545;-76
2022/07/20 01:04:01;;;;;;;0.70;0.20;;;28.00;99.90;;;;;;4953108;29;20483;-74
2022/07/20 01:06:29;;;;;;;0.70;0.10;;;28.00;99.90;;;;;;4952038;29;20957;-75
2022/07/20 01:08:58;;;;;;;0.70;0.20;;;28.00;99.90;;;;;;4952899;29;20465;-76
2022/07/20 01:11:27;;;;;;;0.70;0.20;;;28.00;99.90;;;;;;4952791;29;20473;-73
2022/07/20 01:14:01;;;;;;;0.70;0.10;;;28.00;99.90;;;;;;4952804;29;20487;-75
2022/07/20 01:16:30;;;;;;;0.70;0.10;;;27.90;99.90;;;;;;4952339;29;20465;-75
2022/07/20 01:18:58;;;;;;;0.70;0.20;;;27.90;99.90;;;;;;4952102;29;20530;-75
2022/07/20 01:21:27;;;;;;;0.70;0.20;;;27.90;99.90;;;;;;4944499;29;20482;-75
2022/07/20 01:23:55;;;;;;;1.57;0.87;;;27.70;99.90;;;;;;4950268;29;20486;-75
2022/07/20 01:26:23;;;;;;;0.70;0.20;;;27.50;99.90;;;;;;4952174;29;20459;-74
2022/07/20 01:28:51;;;;;;;0.70;0.10;;;27.50;99.90;;;;;;4952579;29;20942;-75
2022/07/20 01:31:20;;;;;;;0.70;0.40;;;27.20;99.90;;;;;;4953077;29;20479;-74
2022/07/20 01:33:48;;;;;;;0.90;0.40;;;27.10;99.90;;;;;;4953639;29;20935;-75
2022/07/20 01:36:16;;;;;;;0.70;0.20;;;26.80;99.90;;;;;;4952345;29;20455;-75
2022/07/20 01:38:45;;;;;;;1.40;1.03;;;26.60;99.90;;;;;;4952484;29;20542;-76
2022/07/20 01:41:14;;;;;;;0.70;0.27;;;26.30;99.90;;;;;;4953196;29;20502;-76
2022/07/20 01:43:42;;;;;;;1.73;1.47;;;26.30;99.90;;;;;;4953519;29;20940;-74
2022/07/20 01:46:10;;;;;;;0.70;0.10;;;26.30;99.90;;;;;;4952222;29;20969;-74
2022/07/20 01:48:38;;;;;;;0.70;0.10;;;26.30;99.90;;;;;;4949780;28;20479;-75
2022/07/20 01:51:06;;;;;;;1.10;0.70;;;26.20;99.90;;;;;;4951809;29;20989;-76
2022/07/20 01:53:34;;;;;;;0.70;0.20;;;26.20;99.90;;;;;;4944383;29;20455;-76
2022/07/20 01:56:04;;;;;;;0.70;0.20;;;26.20;99.90;;;;;;4952204;29;20519;-76
2022/07/20 01:58:32;;;;;;;0.70;0.40;;;26.20;99.90;;;;;;4952459;29;20457;-75
2022/07/20 02:01:00;;;;;;;0.70;0.20;;;26.20;99.90;;;;;;4951069;29;20455;-75
2022/07/20 02:03:28;;;;;;;0.70;0.20;;;26.20;99.90;;;;;;4951750;29;20539;-75
2022/07/20 02:05:56;;;;;;;0.70;0.10;;;26.30;99.90;;;;;;4952730;29;20842;-76
2022/07/20 02:08:25;;;;;;;0.70;0.20;;;26.30;99.90;;;;;;4936604;29;20988;-76
2022/07/20 02:10:53;;;;;;;0.83;0.40;;;26.30;99.90;;;;;;4941483;29;20478;-75
2022/07/20 02:13:22;;;;;;;0.70;0.20;;;26.30;99.90;;;;;;4952932;28;20439;-75
2022/07/20 02:18:35;;;;;;;0.70;0.10;;;26.30;99.90;;;;;;4955602;29;20961;-74
2022/07/20 02:21:03;;;;;;;0.70;0.10;;;26.30;99.90;;;;;;4955693;29;21033;-74
2022/07/20 02:23:31;;;;;;;0.70;0.20;;;26.30;99.90;;;;;;4956150;29;20545;-77
2022/07/20 02:25:59;;;;;;;0.70;0.10;;;26.30;99.90;;;;;;4956011;29;20497;-75
2022/07/20 02:28:28;;;;;;;0.77;0.37;;;26.20;99.90;;;;;;4947180;29;20801;-75
2022/07/20 02:30:56;;;;;;;0.70;0.30;;;26.20;99.90;;;;;;4956168;29;20574;-75
2022/07/20 02:33:24;;;;;;;0.70;0.20;;;26.20;99.90;;;;;;4956046;29;20790;-74
2022/07/20 02:35:52;;;;;;;0.70;0.10;;;26.10;99.90;;;;;;4955691;29;20462;-76
2022/07/20 02:38:20;;;;;;;0.70;0.23;;;26.20;99.90;;;;;;4955497;29;20454;-74
2022/07/20 02:40:48;;;;;;;0.70;0.20;;;26.10;99.90;;;;;;4957357;29;20600;-72
2022/07/20 02:43:16;;;;;;;0.70;0.10;;;25.90;99.90;;;;;;4957255;29;20451;-71
2022/07/20 02:45:45;;;;;;;0.70;0.20;;;25.90;99.90;;;;;;4955873;29;21015;-72
2022/07/20 02:48:14;;;;;;;0.70;0.20;;;25.90;99.90;;;;;;4939762;29;20462;-72
2022/07/20 02:50:42;;;;;;;0.70;0.10;;;26.00;99.90;;;;;;4936410;29;20835;-72
2022/07/20 02:53:12;;;;;;;0.70;0.20;;;26.00;99.90;;;;;;4936336;29;20478;-71
2022/07/20 02:55:42;;;;;;;0.70;0.10;;;26.00;99.90;;;;;;4936205;29;20443;-72
2022/07/20 02:58:10;;;;;;;0.70;0.10;;;26.10;99.90;;;;;;4936224;29;20543;-74
2022/07/20 03:00:39;;;;;;;6.20;2.60;;;26.10;99.90;;;;;;4936409;29;20468;-73
2022/07/20 03:03:09;;;;;;;0.70;0.10;;;26.00;99.90;;;;;;4936334;29;20452;-71
2022/07/20 03:05:37;;;;;;;0.70;0.10;;;26.00;99.90;;;;;;4936022;29;20906;-72
2022/07/20 03:08:05;;;;;;;0.70;0.20;;;26.00;99.90;;;;;;4952408;29;20451;-74
2022/07/20 03:10:34;;;;;;;0.70;0.10;;;26.00;99.90;;;;;;4955460;29;20509;-73
2022/07/20 03:13:03;;;;;;;0.70;0.10;;;26.00;99.90;;;;;;4955673;29;20443;-72
2022/07/20 03:15:31;;;;;;;0.70;0.10;;;26.00;99.90;;;;;;4955919;29;20451;-72
2022/07/20 03:17:59;;;;;;;0.70;0.20;;;26.00;99.90;;;;;;4956107;29;20946;-71
2022/07/20 03:20:31;;;;;;;0.70;0.10;;;26.10;99.90;;;;;;4957367;29;20481;-72
2022/07/20 03:23:00;;;;;;;0.70;0.10;;;26.00;99.90;;;;;;4957030;29;20462;-71
2022/07/20 03:25:29;;;;;;;0.70;0.10;;;26.00;99.90;;;;;;4951714;28;20495;-75
2022/07/20 03:27:59;;;;;;;0.70;0.10;;;26.00;99.90;;;;;;4948441;29;20455;-72
2022/07/20 03:30:28;;;;;;;0.70;0.20;;;25.90;99.90;;;;;;4955406;29;20479;-71
2022/07/20 03:32:56;;;;;;;0.70;0.20;;;25.90;99.90;;;;;;4947766;29;20456;-71
2022/07/20 03:35:24;;;;;;;0.70;0.10;;;25.90;99.90;;;;;;4954912;29;20451;-75
2022/07/20 03:37:54;;;;;;;0.70;0.20;;;25.80;99.90;;;;;;4954708;29;20458;-73
2022/07/20 03:40:21;;;;;;;0.73;0.17;;;25.80;99.90;;;;;;4954831;29;20466;-73
2022/07/20 03:42:49;;;;;;;0.70;0.20;;;25.70;99.90;;;;;;4954601;29;20447;-72
2022/07/20 03:45:17;;;;;;;1.00;0.60;;;25.70;99.90;;;;;;4953544;29;20478;-72
2022/07/20 03:47:54;;;;;;;0.70;0.10;;;25.70;99.90;;;;;;4934911;29;20439;-71
2022/07/20 03:50:22;;;;;;;0.70;0.10;;;25.60;99.90;;;;;;4935529;29;20504;-72
2022/07/20 03:52:50;;;;;;;2.30;1.50;;;25.60;99.90;;;;;;4954039;29;20443;-72
2022/07/20 03:55:19;;;;;;;0.70;0.20;;;25.60;99.90;;;;;;4954382;29;20455;-72
2022/07/20 03:57:47;;;;;;;0.70;0.20;;;25.60;99.90;;;;;;4954224;29;20447;-71
2022/07/20 04:00:16;;;;;;;0.70;0.20;;;25.60;99.90;;;;;;4954601;29;20874;-71
2022/07/20 04:02:47;;;;;;;0.70;0.20;;;;;;;;;;4954238;29;20462;-71
2022/07/20 04:05:15;;;;;;;0.70;0.23;;;25.70;99.90;;;;;;4954805;29;20491;-72
2022/07/20 04:07:43;;;;;;;0.70;0.20;;;25.70;99.90;;;;;;4935781;29;20456;-72
2022/07/20 04:10:11;;;;;;;0.70;0.20;;;25.70;99.90;;;;;;4935997;29;20544;-72
2022/07/20 04:12:40;;;;;;;0.70;0.10;;;25.70;99.90;;;;;;4935730;29;20471;-72
2022/07/20 04:15:09;;;;;;;0.70;0.13;;;25.70;99.90;;;;;;4935973;29;20792;-71
2022/07/20 04:17:40;;;;;;;0.70;0.20;;;25.70;99.90;;;;;;4934887;29;20460;-73
2022/07/20 04:20:09;;;;;;;0.70;0.10;;;25.70;99.90;;;;;;4935097;29;20562;-71
2022/07/20 04:22:37;;;;;;;0.70;0.20;;;25.80;99.90;;;;;;4935394;29;20552;-71
2022/07/20 04:25:06;;;;;;;0.70;0.10;;;25.80;99.90;;;;;;4935707;29;20448;-71
2022/07/20 04:27:34;;;;;;;0.70;0.20;;;25.90;99.90;;;;;;4952922;29;20455;-71
2022/07/20 04:30:04;;;;;;;0.70;0.10;;;26.00;99.90;;;;;;4955145;29;20844;-71
2022/07/20 04:32:32;;;;;;;0.80;0.40;;;26.10;99.90;;;;;;4945279;28;20462;-71
2022/07/20 04:35:00;;;;;;;0.70;0.10;;;26.10;99.90;;;;;;4954472;29;20451;-72
2022/07/20 04:37:28;;;;;;;1.20;0.67;;;26.10;99.90;;;;;;4952296;28;20985;-72
2022/07/20 04:39:56;;;;;;;0.70;0.30;;;26.20;99.90;;;;;;4953729;29;20458;-74
2022/07/20 04:42:23;;;;;;;0.70;0.10;;;26.20;99.90;;;;;;4954168;29;20494;-71
2022/07/20 04:44:51;;;;;;;0.80;0.30;;;26.20;99.90;;;;;;4953998;29;20478;-72
2022/07/20 04:47:21;;;;;;;0.70;0.20;;;;;;;;;;4951861;29;20518;-72
2022/07/20 04:49:49;;;;;;;1.30;0.30;;;26.30;99.90;;;;;;4955168;29;20466;-72
2022/07/20 04:52:17;;;;;;;0.70;0.10;;;26.40;99.90;;;;;;4955315;29;21005;-72
2022/07/20 04:54:45;;;;;;;0.70;0.20;;;26.40;99.90;;;;;;4955919;29;20724;-72
2022/07/20 04:57:13;;;;;;;0.70;0.10;;;26.50;99.90;;;;;;4953317;29;20939;-72
2022/07/20 04:59:40;;;;;;;0.70;0.10;;;26.50;99.90;;;;;;4954221;29;20458;-71
2022/07/20 05:02:08;;;;;;;0.70;0.20;;;26.60;99.90;;;;;;4956164;28;21009;-73
2022/07/20 05:04:38;;;;;;;2.87;2.67;;;26.60;99.90;;;;;;4965825;28;20499;-74
2022/07/20 05:07:06;;;;;;;0.70;0.20;;;26.60;99.90;;;;;;4954275;29;20521;-74
2022/07/20 05:09:34;;;;;;;0.70;0.20;;;26.70;99.90;;;;;;4954240;29;20451;-74
2022/07/20 05:12:02;;;;;;;0.70;0.10;;;26.70;99.90;;;;;;4953634;29;20578;-72
2022/07/20 05:14:29;;;;;;;0.70;0.20;;;26.70;99.90;;;;;;4953784;29;20863;-71
2022/07/20 05:16:57;;;;;;;0.70;0.13;;;26.80;99.90;;;;;;4952518;29;20554;-71
2022/07/20 05:19:25;;;;;;;0.70;0.10;;;26.70;99.90;;;;;;4953354;29;20451;-72
2022/07/20 05:21:55;;;;;;;0.70;0.20;;;26.70;99.90;;;;;;4958042;28;20478;-73
2022/07/20 05:24:23;;;;;;;1.37;0.50;;;26.70;99.90;;;;;;4954518;28;20451;-72
2022/07/20 05:26:51;;;;;;;0.70;0.10;;;26.70;99.90;;;;;;4952448;29;20483;-73
2022/07/20 05:29:19;;;;;;;0.70;0.20;;;26.60;99.90;;;;;;4952702;29;20457;-72
2022/07/20 05:31:47;;;;;;;2.70;1.40;;;26.60;99.90;;;;;;4953066;29;20914;-72
2022/07/20 05:34:15;;;;;;;0.70;0.20;;;26.60;99.90;;;;;;4952815;29;20833;-70
2022/07/20 05:36:42;;;;;;;0.70;0.10;;;26.60;99.90;;;;;;4951250;29;20460;-70
2022/07/20 05:39:12;;;;;;;0.70;0.10;;;26.60;99.90;;;;;;4940011;29;20455;-71
2022/07/20 05:41:40;;;;;;;0.70;0.10;;;26.70;99.90;;;;;;4943349;29;20997;-70
2022/07/20 05:44:08;;;;;;;0.70;0.20;;;26.80;99.90;;;;;;4952558;29;20534;-68
2022/07/20 05:46:36;;;;;;;0.70;0.10;;;26.80;99.90;;;;;;4952893;29;20489;-72
2022/07/20 05:49:04;;;;;;;0.83;0.20;;;26.80;99.90;;;;;;4946757;29;20471;-69
2022/07/20 05:51:34;;;;;;;0.70;0.20;;;26.80;99.90;;;;;;4953866;28;20509;-71
2022/07/20 05:54:02;;;;;;;0.70;0.10;;;26.80;99.90;;;;;;4964093;28;21094;-71
2022/07/20 05:56:32;;;;;;;0.70;0.10;;;26.80;99.90;;;;;;4964791;28;20443;-70
2022/07/20 05:59:00;;;;;;;0.80;0.30;;;26.90;99.90;;;;;;4963340;28;20443;-71
2022/07/20 06:01:28;;;;;;;0.70;0.20;;;27.00;99.90;;;;;;4964248;28;20588;-72
2022/07/20 06:03:57;;;;;;;0.70;0.20;;;27.00;99.90;;;;;;4960387;28;20470;-70
2022/07/20 06:06:25;;;;;;;0.70;0.10;;;27.10;99.90;;;;;;4965447;28;20513;-71
2022/07/20 06:08:53;;;;;;;0.70;0.20;;;27.10;99.90;;;;;;4960136;28;20538;-71
2022/07/20 06:11:42;;;;;;;0.70;0.20;;;27.30;99.90;;;;;;4950442;28;20841;-70
2022/07/20 06:14:10;;;;;;;0.70;0.17;;;27.30;99.90;;;;;;4945284;28;20815;-70
2022/07/20 06:16:38;;;;;;;0.70;0.10;;;27.40;99.90;;;;;;4956937;28;20537;-70
2022/07/20 06:19:06;;;;;;;1.30;1.20;;;27.50;99.90;;;;;;4953993;29;20467;-70
2022/07/20 06:21:34;;;;;;;0.70;0.20;;;27.60;99.90;;;;;;4954269;29;20489;-71
2022/07/20 06:24:02;;;;;;;0.70;0.20;;;27.60;99.90;;;;;;4952573;29;20462;-72
2022/07/20 06:26:30;;;;;;;0.70;0.20;;;;;;;;;;4956695;29;20534;-70
2022/07/20 06:29:00;;;;;;;0.97;0.40;;;27.70;99.90;;;;;;4958003;29;20450;-71
2022/07/20 06:31:28;;;;;;;0.70;0.10;;;27.70;99.90;;;;;;4950220;29;20958;-69
2022/07/20 06:34:16;;;;;;;0.70;0.10;;;27.70;99.90;;;;;;4950044;28;20454;-68
2022/07/20 06:36:46;;;;;;;0.70;0.20;;;27.70;99.90;;;;;;4950158;29;20462;-68
2022/07/20 06:39:14;;;;;;;0.70;0.10;;;27.70;99.90;;;;;;4959595;29;20453;-67
2022/07/20 06:41:42;;;;;;;0.70;0.20;;;27.80;99.90;;;;;;4956465;29;20838;-67
2022/07/20 06:44:11;;;;;;;0.70;0.20;;;27.80;99.90;;;;;;4957167;29;20963;-67
2022/07/20 06:46:39;;;;;;;0.70;0.20;;;27.90;99.90;;;;;;4957439;29;20878;-69
2022/07/20 06:49:08;;;;;;;0.70;0.10;;;27.90;99.90;;;;;;4956679;29;20450;-69
2022/07/20 06:51:36;;;;;;;0.70;0.30;;;27.90;99.90;;;;;;4957682;28;20995;-69
2022/07/20 06:54:04;;;;;;;0.70;0.20;;;27.90;99.90;;;;;;4966125;28;20545;-69
2022/07/20 06:56:40;;;;;;;0.70;0.20;;;28.00;99.90;;;;;;4967450;28;20528;-70
2022/07/20 06:59:08;;;;;;;0.70;0.20;;;28.00;99.90;;;;;;4967170;28;20446;-69
2022/07/20 07:01:37;;;;;;;0.70;0.10;;;28.10;99.90;;;;;;4963187;28;20809;-69
2022/07/20 07:04:06;;;;;;;0.70;0.20;;;28.20;99.90;;;;;;4965982;28;20445;-70
2022/07/20 07:06:35;;;;;;;0.80;0.20;;;28.30;99.90;;;;;;4964771;28;20455;-70
2022/07/20 07:09:03;;;;;;;0.70;0.20;;;28.30;99.90;;;;;;4964855;28;20816;-70
2022/07/20 07:11:31;;;;;;;0.90;0.40;;;28.40;99.90;;;;;;4958946;28;20467;-70
2022/07/20 07:13:59;;;;;;;0.70;0.27;;;28.40;99.90;;;;;;4955890;29;20499;-70
2022/07/20 07:16:27;;;;;;;0.70;0.20;;;28.40;99.90;;;;;;4956477;28;20967;-70
2022/07/20 07:18:56;;;;;;;2.60;2.50;;;28.40;99.90;;;;;;4954047;28;20822;-71
2022/07/20 07:21:25;;;;;;;0.70;0.10;;;28.60;99.90;;;;;;4953728;28;20479;-68
2022/07/20 07:23:53;;;;;;;0.70;0.10;;;28.60;99.90;;;;;;4956504;28;20455;-69
2022/07/20 07:26:22;;;;;;;0.70;0.20;;;;;;;;;;4953490;29;20481;-69
2022/07/20 07:28:50;;;;;;;0.70;0.20;;;28.80;99.90;;;;;;4955145;29;20482;-69
2022/07/20 07:31:19;;;;;;;0.70;0.20;;;28.90;99.90;;;;;;4955617;29;20499;-69
2022/07/20 07:33:47;;;;;;;0.70;0.10;;;28.90;99.90;;;;;;4955789;29;20526;-68
2022/07/20 07:36:17;;;;;;;0.70;0.20;;;28.90;99.90;;;;;;4955033;29;20439;-69
2022/07/20 07:38:45;;;;;;;0.70;0.20;;;29.00;99.90;;;;;;4948061;29;20459;-68
2022/07/20 07:41:13;;;;;;;0.70;0.20;;;29.10;99.90;;;;;;4954425;29;20479;-68
2022/07/20 07:43:41;;;;;;;0.70;0.20;;;29.10;99.90;;;;;;4954728;29;20443;-69
2022/07/20 07:46:09;;;;;;;0.70;0.13;;;29.20;99.90;;;;;;4955404;29;20942;-71
2022/07/20 07:48:38;;;;;;;0.70;0.10;;;29.30;99.90;;;;;;4954130;29;20514;-68
2022/07/20 07:51:06;;;;;;;0.70;0.20;;;29.50;99.90;;;;;;4953956;29;20846;-70
2022/07/20 07:53:35;;;;;;;0.70;0.10;;;29.50;99.90;;;;;;4954962;29;20782;-69
2022/07/20 07:56:03;;;;;;;0.70;0.20;;;29.60;99.90;;;;;;4955014;29;20841;-68
2022/07/20 07:58:31;;;;;;;0.70;0.20;;;29.60;99.90;;;;;;4954627;29;21063;-70
2022/07/20 08:00:59;;;;;;;0.70;0.17;;;29.80;99.90;;;;;;4948135;28;20471;-67
2022/07/20 08:03:27;;;;;;;0.80;0.30;;;29.70;99.90;;;;;;4957091;28;20450;-71
2022/07/20 08:06:00;;;;;;;0.70;0.17;;;29.80;99.90;;;;;;4949891;29;20545;-70
2022/07/20 08:08:29;;;;;;;0.70;0.10;;;29.90;99.90;;;;;;4954002;29;20483;-70
2022/07/20 08:10:59;;;;;;;0.80;0.20;;;30.00;99.90;;;;;;4942951;28;20475;-70
2022/07/20 08:13:27;;;;;;;0.70;0.20;;;30.00;99.90;;;;;;4950332;29;20945;-72
2022/07/20 08:15:55;;;;;;;0.70;0.30;;;30.00;99.90;;;;;;4954371;29;20443;-70
2022/07/20 08:18:23;;;;;;;0.70;0.10;;;30.10;99.90;;;;;;4955109;29;20483;-70
2022/07/20 08:20:51;;;;;;;0.70;0.20;;;30.20;99.90;;;;;;4953799;29;20561;-70
2022/07/20 08:23:19;;;;;;;0.70;0.17;;;30.20;99.90;;;;;;4951657;29;20463;-69
2022/07/20 08:25:47;;;;;;;0.70;0.10;;;30.30;99.90;;;;;;4957150;28;20455;-73
2022/07/20 08:28:18;;;;;;;0.70;0.10;;;30.40;99.90;;;;;;4955485;28;20983;-72
2022/07/20 08:30:48;;;;;;;0.70;0.20;;;29.70;99.90;;;;;;4953852;29;20834;-74
2022/07/20 08:33:21;;;;;;;0.70;0.20;;;30.60;99.90;;;;;;4953742;29;20760;-72
2022/07/20 08:35:49;;;;;;;0.70;0.20;;;30.60;99.90;;;;;;4953450;29;20447;-73
2022/07/20 08:38:17;;;;;;;0.70;0.20;;;30.70;99.90;;;;;;4954190;28;20439;-74
2022/07/20 08:40:46;;;;;;;0.70;0.10;;;30.80;99.90;;;;;;4951322;28;21215;-73
2022/07/20 08:43:15;;;;;;;0.70;0.20;;;30.80;99.90;;;;;;4934971;29;21011;-72
2022/07/20 08:45:47;;;;;;;0.70;0.10;;;30.90;99.90;;;;;;4934629;29;20951;-72
2022/07/20 08:48:18;;;;;;;0.70;0.20;;;30.90;99.90;;;;;;4934784;29;20483;-76
2022/07/20 08:50:49;;;;;;;0.70;0.10;;;31.00;99.90;;;;;;4940206;29;20467;-73
2022/07/20 08:53:19;;;;;;;0.80;0.30;;;31.10;99.90;;;;;;4953418;29;20939;-74
2022/07/20 08:55:48;;;;;;;0.70;0.10;;;31.10;99.90;;;;;;4954163;29;20446;-74
2022/07/20 08:58:16;;;;;;;0.70;0.20;;;31.20;99.90;;;;;;4952801;29;20856;-74
2022/07/20 09:00:45;;;;;;;0.70;0.20;;;31.20;99.90;;;;;;4949098;29;21001;-74
2022/07/20 09:03:14;;;;;;;0.70;0.20;;;31.20;99.90;;;;;;4934513;29;20546;-74
2022/07/20 09:05:43;;;;;;;0.70;0.20;;;31.30;99.90;;;;;;4934124;29;20459;-76
2022/07/20 09:08:13;;;;;;;1.17;0.67;;;31.30;99.90;;;;;;4934224;29;20482;-77
2022/07/20 09:10:46;;;;;;;0.70;0.20;;;31.40;99.90;;;;;;4947171;29;20545;-75
2022/07/20 09:13:19;;;;;;;0.70;0.20;;;31.50;99.90;;;;;;4952392;29;20465;-75
2022/07/20 09:15:49;;;;;;;0.70;0.20;;;31.50;99.90;;;;;;4952743;29;20475;-74
2022/07/20 09:18:19;;;;;;;0.70;0.20;;;31.50;99.90;;;;;;4959329;28;20453;-73
2022/07/20 09:20:49;;;;;;;0.70;0.20;;;31.60;99.90;;;;;;4954401;28;20481;-74
2022/07/20 09:23:18;;;;;;;0.70;0.10;;;31.60;99.90;;;;;;4958562;28;20531;-75
2022/07/20 09:25:58;;;;;;;0.70;0.20;;;31.70;99.90;;;;;;4965411;28;20451;-75
2022/07/20 09:28:37;;;;;;;0.70;0.20;;;31.90;99.90;;;;;;4961583;28;20551;-75
2022/07/20 09:31:12;;;;;;;0.70;0.20;;;31.90;99.90;;;;;;4962733;28;20475;-74
2022/07/20 09:33:47;;;;;;;0.70;0.20;;;32.00;99.90;;;;;;4971306;28;20462;-75
2022/07/20 09:36:16;;;;;;;0.70;0.20;;;32.00;99.90;;;;;;4971191;28;20537;-74
2022/07/20 09:38:44;;;;;;;0.70;0.20;;;32.10;99.90;;;;;;4970971;28;20438;-75
2022/07/20 09:41:22;;;;;;;0.70;0.20;;;32.20;99.90;;;;;;4969837;28;20501;-74
2022/07/20 09:43:51;;;;;;;0.70;0.13;;;32.20;99.90;;;;;;4961514;29;20455;-74
2022/07/20 09:46:22;;;;;;;0.70;0.20;;;32.30;99.90;;;;;;4953782;29;20487;-73
2022/07/20 09:48:52;;;;;;;0.70;0.20;;;32.30;99.90;;;;;;4965427;28;20478;-72
2022/07/20 09:51:26;;;;;;;0.70;0.20;;;32.40;99.90;;;;;;4976821;28;20489;-75
2022/07/20 09:54:02;;;;;;;0.70;0.20;;;32.50;99.90;;;;;;4981602;28;20863;-75
2022/07/20 09:56:31;;;;;;;0.70;0.20;;;32.60;99.90;;;;;;4969950;28;20841;-75
2022/07/20 09:59:02;;;;;;;0.70;0.20;;;32.60;99.90;;;;;;4955117;29;20450;-74
2022/07/20 10:01:33;;;;;;;0.70;0.20;;;32.80;99.90;;;;;;4959581;28;20474;-74
2022/07/20 10:04:03;;;;;;;0.70;0.20;;;32.80;99.90;;;;;;4974119;28;20467;-75
2022/07/20 10:06:32;;;;;;;0.70;0.20;;;32.80;99.90;;;;;;4966620;28;20455;-74
2022/07/20 10:09:01;;;;;;;0.70;0.20;;;32.90;99.90;;;;;;4949883;28;20503;-74
2022/07/20 10:11:29;;;;;;;0.70;0.20;;;33.00;99.90;;;;;;4935357;29;20468;-75
2022/07/20 10:13:59;;;;;;;0.70;0.20;;;33.00;99.90;;;;;;4935483;29;20463;-75
2022/07/20 10:16:33;;;;;;;0.70;0.20;;;33.00;99.90;;;;;;4948478;29;20455;-75
2022/07/20 10:19:04;;;;;;;0.70;0.20;;;33.10;99.90;;;;;;4952294;29;20451;-75
2022/07/20 10:21:38;;;;;;;0.70;0.20;;;33.20;99.90;;;;;;4952608;29;20479;-75
2022/07/20 10:24:17;;;;;;;0.70;0.20;;;33.30;99.90;;;;;;4952117;29;20447;-75
2022/07/20 10:26:45;;;;;;;0.70;0.20;;;33.30;99.90;;;;;;4950108;29;20525;-74
2022/07/20 10:29:26;;;;;;;0.70;0.20;;;33.40;99.90;;;;;;4952661;29;20483;-75
2022/07/20 10:31:58;;;;;;;0.70;0.20;;;33.40;99.90;;;;;;4934980;29;20466;-74
2022/07/20 10:34:39;;;;;;;0.70;0.20;;;33.50;99.90;;;;;;4951471;28;20443;-74
2022/07/20 10:37:40;;;;;;;0.70;0.20;;;33.50;99.90;;;;;;4948974;29;20459;-73
2022/07/20 10:40:11;;;;;;;0.70;0.20;;;33.70;99.90;;;;;;4947225;29;20456;-74
2022/07/20 10:42:40;;;;;;;0.70;0.20;;;33.70;99.90;;;;;;4956104;29;20526;-74
2022/07/20 10:45:29;;;;;;;0.70;0.30;;;33.70;99.90;;;;;;4956285;29;20541;-75
2022/07/20 10:48:01;;;;;;;0.70;0.20;;;33.70;99.90;;;;;;4945711;29;20593;-74
2022/07/20 10:50:36;;;;;;;0.70;0.20;;;33.80;99.90;;;;;;4952424;29;20565;-75
2022/07/20 10:53:29;;;;;;;0.70;0.20;;;33.80;99.90;;;;;;4953801;29;20451;-75
2022/07/20 10:55:58;;;;;;;0.70;0.20;;;33.80;99.90;;;;;;4948478;29;20451;-75
2022/07/20 10:58:30;;;;;;;0.70;0.20;;;33.90;99.90;;;;;;4955050;29;20486;-74
2022/07/20 11:01:01;;;;;;;0.70;0.17;;;34.00;99.90;;;;;;4954255;29;20478;-76
2022/07/20 11:03:31;;;;;;;0.70;0.20;;;34.10;99.90;;;;;;4948296;29;21020;-75
2022/07/20 11:06:02;;;;;;;0.70;0.20;;;34.00;99.90;;;;;;4946513;29;20828;-75
2022/07/20 11:08:33;;;;;;;0.70;0.20;;;34.20;99.90;;;;;;4951291;29;20518;-74
2022/07/20 11:11:02;;;;;;;0.70;0.20;;;34.20;99.90;;;;;;4955410;29;20467;-74
2022/07/20 11:13:30;;;;;;;0.70;0.20;;;34.20;99.90;;;;;;4950458;29;20819;-75
2022/07/20 11:15:59;;;;;;;0.70;0.20;;;34.20;99.90;;;;;;4954381;29;20462;-75
2022/07/20 11:18:36;;;;;;;0.70;0.20;;;34.20;99.90;;;;;;4954553;29;20534;-74
2022/07/20 11:21:05;;;;;;;0.70;0.20;;;34.30;99.90;;;;;;4941600;29;20498;-75
2022/07/20 11:23:41;;;;;;;0.70;0.20;;;34.40;99.90;;;;;;4952499;29;21149;-74
2022/07/20 11:26:09;;;;;;;0.70;0.20;;;34.40;99.90;;;;;;4954795;29;20541;-75
2022/07/20 11:28:43;;;;;;;0.70;0.20;;;34.60;99.90;;;;;;4953417;29;20463;-74
2022/07/20 11:31:11;;;;;;;0.70;0.20;;;34.70;99.90;;;;;;4950292;29;20468;-75
2022/07/20 11:33:42;;;;;;;0.70;0.20;;;34.70;99.90;;;;;;4953248;29;20522;-75
2022/07/20 11:36:13;;;;;;;0.70;0.20;;;34.70;99.90;;;;;;4952705;29;20474;-75
2022/07/20 11:38:42;;;;;;;0.70;0.17;;;34.80;99.90;;;;;;4948453;29;20547;-75
2022/07/20 11:41:13;;;;;;;0.70;0.20;;;34.90;99.90;;;;;;4943227;29;20514;-75
2022/07/20 11:43:50;;;;;;;0.70;0.20;;;35.00;99.90;;;;;;4952674;29;20509;-74
2022/07/20 11:46:21;;;;;;;0.80;0.40;;;35.10;99.90;;;;;;4955369;28;20454;-74
2022/07/20 11:48:56;;;;;;;0.70;0.30;;;35.20;99.90;;;;;;4944177;29;20456;-74
2022/07/20 11:51:51;;;;;;;0.70;0.20;;;35.20;99.90;;;;;;4955324;29;20463;-75
2022/07/20 11:54:33;;;;;;;0.70;0.20;;;35.40;99.90;;;;;;4940048;29;20470;-75
2022/07/20 11:57:06;;;;;;;0.70;0.20;;;35.40;99.90;;;;;;4944213;29;20455;-74
2022/07/20 11:59:35;;;;;;;0.70;0.20;;;35.40;99.90;;;;;;4951519;29;20445;-76
2022/07/20 12:02:04;;;;;;;0.70;0.20;;;35.40;99.90;;;;;;4953926;29;20467;-75
2022/07/20 12:04:36;;;;;;;0.70;0.20;;;35.50;99.90;;;;;;4954176;29;20554;-75
2022/07/20 12:08:07;;;;;;;0.70;0.20;;;35.60;99.90;;;;;;4954662;29;20456;-75
2022/07/20 12:09:54;;;;;;;0.70;0.20;;;;;;;;;;4953900;29;20483;-76
2022/07/20 12:15:12;;;;;;;0.70;0.20;;;35.80;99.90;;;;;;4954023;29;20581;-75
2022/07/20 12:17:48;;;;;;;0.70;0.20;;;35.80;99.90;;;;;;4953078;29;20534;-76
2022/07/20 12:20:18;;;;;;;0.70;0.20;;;35.90;99.90;;;;;;4953482;29;20482;-75
2022/07/20 12:22:51;;;;;;;0.70;0.20;;;35.90;99.90;;;;;;4955366;29;20537;-75
2022/07/20 12:25:19;;;;;;;0.70;0.20;;;36.00;99.90;;;;;;4954266;29;20459;-75
2022/07/20 12:27:48;;;;;;;0.70;0.20;;;36.00;99.90;;;;;;4953511;29;20952;-75
2022/07/20 12:30:28;;;;;;;0.90;0.20;;;36.10;99.90;;;;;;4949756;29;20484;-75
2022/07/20 12:33:04;;;;;;;0.70;0.20;;;36.10;99.90;;;;;;4954675;29;20480;-74
2022/07/20 12:35:34;;;;;;;0.70;0.20;;;;;;;;;;4953079;29;20449;-74
2022/07/20 12:38:02;;;;;;;0.70;0.10;;;36.00;99.90;;;;;;4941288;29;20455;-75
2022/07/20 12:40:39;;;;;;;0.70;0.20;;;36.00;99.90;;;;;;4949429;29;20478;-75
2022/07/20 12:43:27;;;;;;;0.70;0.30;;;36.00;99.90;;;;;;4953436;29;20450;-74
2022/07/20 12:45:55;;;;;;;0.70;0.20;;;36.00;99.90;;;;;;4953309;29;20443;-74
2022/07/20 12:48:23;;;;;;;0.70;0.20;;;36.00;99.90;;;;;;4953730;29;20447;-75
2022/07/20 12:50:53;;;;;;;0.70;0.20;;;36.10;99.90;;;;;;4953152;29;20493;-74
2022/07/20 12:53:21;;;;;;;0.70;0.10;;;;;;;;;;4953854;29;20451;-75
2022/07/20 12:55:49;;;;;;;0.70;0.20;;;;;;;;;;4953311;29;20495;-76
2022/07/20 12:58:17;;;;;;;0.70;0.20;;;36.30;99.90;;;;;;4952256;28;20466;-74
2022/07/20 13:00:45;;;;;;;9.10;2.27;;;36.40;99.90;;;;;;4953498;29;20482;-74
2022/07/20 13:03:13;;;;;;;0.70;0.20;;;36.30;99.90;;;;;;4953883;29;20476;-74
2022/07/20 13:05:41;;;;;;;3.47;0.83;;;36.30;99.90;;;;;;4953500;29;20453;-74
2022/07/20 13:08:10;;;;;;;0.70;0.40;;;36.30;99.90;;;;;;4944782;28;20478;-74
2022/07/20 13:10:39;;;;;;;0.70;0.20;;;36.40;99.90;;;;;;4952770;29;20506;-74
2022/07/20 13:13:07;;;;;;;0.70;0.20;;;36.40;99.90;;;;;;4953212;29;21274;-75